Terminal Aerodrome Forecast
Issued by NWS Omaha/Valley, NE

Home | Current Version | Previous Version | Text Only | Print | Product List | Glossary On
Versions: 1 2 3 4 5 6 7 8 9 10 11 12 13 14 15 16
000
FTUS43 KOAX 250520
TAFLNK
TAF
KLNK 250520Z 2506/2606 36012KT 5SM -SHRA BR BKN009 OVC025
     FM251000 01010KT P6SM -SHRA OVC025
     FM251200 02011KT P6SM -RA OVC035
     FM251600 02011KT P6SM VCSH OVC045
     FM251800 02009KT P6SM BKN070
     FM252200 01007KT P6SM SCT140=

USA.gov is the U.S. government's official web portal to all federal, state and local government web resources and services.